This is the latest recevied weather packets stored in our database for station/object n7wwk-1. If no packets are shown the sender has not sent any weather packets the latest 10 day(s).
| Time | Temp. | Humidity | Pressure | Rain* | Wind** | Luminosity | Snow |
|---|---|---|---|---|---|---|---|
| 1777773005 | 17.22° C | 93% | 1011.5 hPa | 0 mm | - | 0 W/m² | - |
| 1777772404 | 17.22° C | 94% | 1011.1 hPa | 0 mm | - | 0 W/m² | - |
| 1777770005 | 17.78° C | 93% | 1010.8 hPa | 0 mm | - | 0 W/m² | - |
| 1777769538 | 17.78° C | 93% | 1010.5 hPa | 0 mm | - | 0 W/m² | - |
| 1777768805 | 18.33° C | 93% | 1010.3 hPa | 0 mm | - | 0 W/m² | - |
| 1777768205 | 19.44° C | 93% | 1010 hPa | 0 mm | - | 0 W/m² | - |
| 1777766405 | 21.11° C | 89% | 1009.2 hPa | 0 mm | - | 3 W/m² | - |
| 1777765205 | 21.11° C | 88% | 1008.6 hPa | 0 mm | - | 24 W/m² | - |
| 1777763405 | 21.67° C | 92% | 1008.5 hPa | 0 mm | - | 29 W/m² | - |
| 1777762805 | 21.67° C | 93% | 1008.2 hPa | 0 mm | - | 13 W/m² | - |
| 1777759805 | 22.78° C | 91% | 1007.5 hPa | 0 mm | - | 23 W/m² | - |
| 1777758004 | 22.78° C | 89% | 1006.9 hPa | 0 mm | - | 50 W/m² | - |
| 1777755605 | 22.78° C | 90% | 1006.7 hPa | 0 mm | - | 167 W/m² | - |
| 1777753205 | 22.22° C | 91% | 1007.4 hPa | 0 mm | - | 142 W/m² | - |
| 1777750805 | 20.56° C | 93% | 1007.7 hPa | 0 mm | - | 151 W/m² | - |
| 1777746005 | 20° C | 97% | 1007.7 hPa | 4.32 mm | - | 147 W/m² | - |
| 1777744805 | 21.67° C | 96% | 1007.8 hPa | 4.06 mm | - | 20 W/m² | - |
| 1777741805 | 23.33° C | 93% | 1008.7 hPa | 0.25 mm | - | 29 W/m² | - |
| 1777736405 | 25.56° C | 80% | 1007.9 hPa | 0 mm | - | 123 W/m² | - |
| 1777735337 | 25.56° C | 80% | 1008.1 hPa | 0 mm | - | 159 W/m² | - |
| 1777728004 | 23.33° C | 92% | 1008.3 hPa | 0 mm | - | 76 W/m² | - |
| 1777727405 | 23.33° C | 92% | 1008.6 hPa | 0 mm | - | 72 W/m² | - |
| 1777726205 | 22.78° C | 92% | 1008 hPa | 0 mm | - | 87 W/m² | - |
| 1777723205 | 21.67° C | 97% | 1007.4 hPa | 0 mm | - | 80 W/m² | - |
| 1777720805 | 20.56° C | 98% | 1007.7 hPa | 0 mm | - | 27 W/m² | - |
* Rain latest hour (hover to see other rain measurements)
** Current wind speed in m/s (hover to see current wind gust speed)